createdAt,value
2022-09-30T00:01:55.834Z,10.30
2022-09-30T00:04:33.655Z,6.90
2022-09-30T00:07:02.040Z,7.07
2022-09-30T00:09:30.473Z,7.80
2022-09-30T00:12:01.783Z,7.07
2022-09-30T00:14:34.588Z,7.87
2022-09-30T00:17:05.332Z,8.43
2022-09-30T00:19:38.043Z,8.33
2022-09-30T00:22:06.584Z,7.90
2022-09-30T00:24:43.099Z,7.63
2022-09-30T00:27:20.177Z,6.13
2022-09-30T00:29:48.473Z,8.87
2022-09-30T00:32:16.758Z,7.60
2022-09-30T00:34:46.404Z,4.63
2022-09-30T00:37:15.503Z,6.20
2022-09-30T00:39:49.038Z,5.70
2022-09-30T00:42:19.590Z,7.83
2022-09-30T00:44:52.048Z,4.20
2022-09-30T00:47:50.469Z,5.33
2022-09-30T00:50:31.003Z,6.90
2022-09-30T00:53:06.747Z,9.53
2022-09-30T00:55:48.848Z,7.40
2022-09-30T00:58:26.124Z,8.50
2022-09-30T01:00:55.092Z,8.07
2022-09-30T01:03:25.653Z,7.17
2022-09-30T01:05:55.614Z,9.63
2022-09-30T01:08:23.925Z,9.00
2022-09-30T01:10:52.123Z,7.63
2022-09-30T01:13:23.883Z,9.10
2022-09-30T01:16:26.083Z,8.33
2022-09-30T01:19:01.895Z,9.17
2022-09-30T01:22:07.864Z,7.80
2022-09-30T01:25:05.390Z,8.27
2022-09-30T01:28:11.537Z,10.07
2022-09-30T01:30:50.614Z,11.30
2022-09-30T01:33:22.667Z,9.03
2022-09-30T01:35:59.491Z,10.97
2022-09-30T01:38:29.638Z,10.90
2022-09-30T01:41:04.803Z,8.33
2022-09-30T01:43:52.529Z,9.70
2022-09-30T01:46:28.115Z,11.13
2022-09-30T01:49:05.058Z,10.43
2022-09-30T01:51:36.654Z,8.83
2022-09-30T01:54:06.474Z,9.03
2022-09-30T01:56:39.560Z,8.90
2022-09-30T01:59:09.185Z,9.03
2022-09-30T02:01:43.000Z,8.30
2022-09-30T02:04:14.235Z,8.37
2022-09-30T02:06:47.607Z,8.70
2022-09-30T02:09:17.980Z,9.17
2022-09-30T02:11:48.103Z,10.47
2022-09-30T02:14:19.381Z,11.30
2022-09-30T02:16:51.042Z,9.30
2022-09-30T02:19:23.424Z,8.87
2022-09-30T02:21:55.010Z,7.87
2022-09-30T02:24:25.435Z,9.80
2022-09-30T02:26:54.902Z,8.03
2022-09-30T02:29:25.453Z,7.87
2022-09-30T02:31:57.280Z,9.83
2022-09-30T02:34:26.752Z,6.97
2022-09-30T02:36:56.933Z,6.93
2022-09-30T02:39:29.862Z,6.87
2022-09-30T02:42:01.671Z,6.73
2022-09-30T02:44:31.977Z,8.23
2022-09-30T02:47:11.891Z,7.83
2022-09-30T02:49:42.885Z,7.63
2022-09-30T02:52:15.891Z,7.67
2022-09-30T02:54:50.665Z,16.43
2022-09-30T02:57:20.864Z,11.67
2022-09-30T02:59:54.630Z,10.17
2022-09-30T03:02:30.343Z,6.07
2022-09-30T03:04:58.647Z,7.20
2022-09-30T03:07:27.034Z,6.87
2022-09-30T03:09:58.271Z,6.93
2022-09-30T03:12:32.784Z,6.23
2022-09-30T03:15:13.650Z,6.97
2022-09-30T03:18:10.181Z,6.23
2022-09-30T03:20:43.329Z,11.60
2022-09-30T03:23:26.589Z,7.43
2022-09-30T03:25:59.050Z,5.73
2022-09-30T03:28:35.586Z,8.43
2022-09-30T03:31:07.459Z,5.23
2022-09-30T03:33:50.581Z,7.13
2022-09-30T03:36:24.897Z,9.27
2022-09-30T03:38:56.080Z,5.33
2022-09-30T03:41:27.114Z,6.20
2022-09-30T03:44:11.238Z,5.73
2022-09-30T03:46:42.348Z,5.70
2022-09-30T03:49:19.895Z,8.90
2022-09-30T03:51:50.769Z,5.40
2022-09-30T03:54:20.748Z,5.47
2022-09-30T03:56:49.484Z,6.23
2022-09-30T03:59:21.885Z,4.77
2022-09-30T04:01:53.786Z,4.90
2022-09-30T04:04:29.872Z,3.37
2022-09-30T04:06:58.201Z,68.70
2022-09-30T04:09:27.434Z,4.80
2022-09-30T04:11:56.832Z,3.63
2022-09-30T04:14:26.618Z,5.00
2022-09-30T04:16:54.980Z,3.67
2022-09-30T04:19:24.791Z,11.07
2022-09-30T04:21:56.165Z,4.67
2022-09-30T04:24:27.039Z,4.07
2022-09-30T04:26:58.186Z,4.10
2022-09-30T04:29:26.578Z,4.27
2022-09-30T04:31:54.933Z,4.20
2022-09-30T04:34:23.307Z,4.93
2022-09-30T04:36:51.515Z,5.17
2022-09-30T04:39:48.188Z,7.13
2022-09-30T04:42:16.903Z,6.10
2022-09-30T04:44:49.283Z,5.60
2022-09-30T04:47:17.890Z,5.93
2022-09-30T04:49:48.827Z,7.77
2022-09-30T04:52:17.165Z,8.73
2022-09-30T04:54:48.235Z,8.30
2022-09-30T04:57:16.885Z,11.83
2022-09-30T04:59:48.391Z,10.03
2022-09-30T05:02:17.135Z,8.93
2022-09-30T05:04:55.324Z,10.00
2022-09-30T05:07:26.904Z,9.60
2022-09-30T05:09:58.858Z,9.20
2022-09-30T05:12:27.902Z,8.93
2022-09-30T05:14:56.347Z,8.13
2022-09-30T05:17:31.288Z,9.17
2022-09-30T05:20:02.311Z,8.67
2022-09-30T05:22:30.821Z,9.33
2022-09-30T05:25:00.585Z,9.40
2022-09-30T05:27:32.009Z,8.07
2022-09-30T05:30:00.551Z,7.33
2022-09-30T05:32:29.393Z,9.10
2022-09-30T05:35:21.337Z,7.53
2022-09-30T05:37:52.652Z,8.83
2022-09-30T05:40:22.304Z,11.70
2022-09-30T05:42:54.445Z,8.87
2022-09-30T05:45:30.501Z,11.43
2022-09-30T05:47:58.867Z,9.00
2022-09-30T05:50:27.314Z,9.27
2022-09-30T05:53:00.888Z,11.37
2022-09-30T05:55:35.752Z,10.47
2022-09-30T05:58:06.761Z,13.43
2022-09-30T06:00:35.054Z,9.80
2022-09-30T06:03:06.650Z,9.90
2022-09-30T06:05:35.350Z,10.53
2022-09-30T06:08:11.998Z,10.60
2022-09-30T06:10:47.263Z,11.90
2022-09-30T06:13:19.853Z,13.50
2022-09-30T06:15:57.515Z,13.43
2022-09-30T06:18:27.571Z,12.90
2022-09-30T06:21:03.013Z,11.20
2022-09-30T06:23:31.203Z,13.77
2022-09-30T06:26:17.853Z,12.40
2022-09-30T06:28:49.195Z,12.53
2022-09-30T06:31:23.349Z,11.40
2022-09-30T06:33:54.046Z,12.97
2022-09-30T06:36:27.173Z,12.13
2022-09-30T06:38:57.044Z,13.17
2022-09-30T06:41:45.467Z,12.73
2022-09-30T06:44:14.181Z,11.83
2022-09-30T06:46:53.141Z,15.67
2022-09-30T06:49:23.956Z,13.63
2022-09-30T06:52:00.574Z,18.00
2022-09-30T06:54:30.750Z,18.10
2022-09-30T06:57:03.956Z,17.13
2022-09-30T06:59:32.137Z,18.43
2022-09-30T07:02:02.328Z,21.10
2022-09-30T07:04:36.208Z,20.40
2022-09-30T07:07:16.386Z,22.00
2022-09-30T07:09:59.457Z,22.23
2022-09-30T07:12:32.486Z,24.40
2022-09-30T07:15:13.553Z,21.93
2022-09-30T07:17:42.483Z,21.43
2022-09-30T07:20:16.997Z,19.80
2022-09-30T07:22:56.151Z,18.57
2022-09-30T07:25:25.856Z,20.80
2022-09-30T07:28:23.731Z,20.87
2022-09-30T07:31:27.455Z,22.10
2022-09-30T07:33:47.496Z,18.37
2022-09-30T07:36:18.701Z,19.60
2022-09-30T07:38:52.904Z,16.57
2022-09-30T07:41:25.884Z,20.00
2022-09-30T07:43:58.883Z,16.33
2022-09-30T07:46:29.381Z,19.40
2022-09-30T07:49:26.851Z,19.60
2022-09-30T07:51:55.773Z,19.13
2022-09-30T07:54:25.425Z,21.97
2022-09-30T07:57:12.310Z,20.37
2022-09-30T07:59:45.092Z,23.80
2022-09-30T08:02:15.487Z,19.87
2022-09-30T08:04:54.568Z,22.00
2022-09-30T08:07:33.092Z,21.77
2022-09-30T08:12:45.143Z,18.20
2022-09-30T08:15:27.616Z,19.57
2022-09-30T08:18:07.456Z,15.90
2022-09-30T08:20:43.467Z,18.57
2022-09-30T08:23:16.489Z,17.53
2022-09-30T08:26:01.248Z,12.93
2022-09-30T08:28:32.396Z,14.40
2022-09-30T08:31:39.000Z,13.53
2022-09-30T08:35:25.521Z,15.43
2022-09-30T08:38:07.829Z,13.73
2022-09-30T08:40:41.390Z,13.40
2022-09-30T08:43:38.254Z,12.73
2022-09-30T08:49:23.257Z,12.23
2022-09-30T08:57:12.279Z,10.93
2022-09-30T09:08:08.156Z,12.77
2022-09-30T09:18:34.278Z,11.83
2022-09-30T09:22:12.687Z,12.27
2022-09-30T09:24:52.433Z,11.67
2022-09-30T09:27:54.589Z,11.63
2022-09-30T09:30:28.807Z,11.43
2022-09-30T09:33:02.372Z,8.60
2022-09-30T09:35:43.811Z,7.63
2022-09-30T09:38:30.665Z,7.63
2022-09-30T09:41:36.505Z,6.60
2022-09-30T09:44:07.378Z,4.57
2022-09-30T09:46:48.678Z,2.50
2022-09-30T09:49:48.392Z,2.37
2022-09-30T09:53:03.514Z,4.17
2022-09-30T09:55:39.020Z,1.93
2022-09-30T09:58:16.801Z,1.90
2022-09-30T10:11:25.969Z,1.60
2022-09-30T10:14:12.434Z,1.50
2022-09-30T10:16:50.993Z,4.63
2022-09-30T10:19:24.157Z,1.50
2022-09-30T10:25:34.446Z,1.30
2022-09-30T10:28:03.745Z,4.23
2022-09-30T10:32:01.549Z,3.53
2022-09-30T10:38:00.563Z,2.27
2022-09-30T10:40:30.121Z,1.30
2022-09-30T10:43:00.574Z,0.90
2022-09-30T10:45:38.334Z,2.23
2022-09-30T10:48:13.548Z,1.23
2022-09-30T10:50:43.270Z,0.80
2022-09-30T10:53:29.008Z,2.33
2022-09-30T10:56:07.708Z,1.73
2022-09-30T10:58:52.907Z,0.67
2022-09-30T11:01:29.895Z,2.10
2022-09-30T11:04:02.971Z,1.27
2022-09-30T11:06:33.308Z,0.63
2022-09-30T11:09:05.994Z,0.53
2022-09-30T11:11:40.888Z,0.90
2022-09-30T11:14:36.654Z,1.43
2022-09-30T11:17:36.908Z,1.53
2022-09-30T11:20:11.854Z,0.97
2022-09-30T11:22:57.460Z,2.30
2022-09-30T11:25:31.460Z,0.80
2022-09-30T11:28:14.712Z,1.10
2022-09-30T11:30:52.853Z,0.93
2022-09-30T11:33:32.893Z,2.00
2022-09-30T11:36:08.769Z,1.57
2022-09-30T11:38:56.855Z,0.77
2022-09-30T11:41:29.120Z,2.30
2022-09-30T11:44:03.003Z,1.63
2022-09-30T11:46:54.256Z,3.17
2022-09-30T11:49:34.819Z,1.30
2022-09-30T11:52:06.688Z,2.53
2022-09-30T11:54:42.601Z,2.23
2022-09-30T11:57:16.209Z,2.60
2022-09-30T11:59:45.772Z,2.23
2022-09-30T12:02:31.876Z,1.27
2022-09-30T12:05:01.154Z,1.57
2022-09-30T12:07:37.770Z,3.33
2022-09-30T12:10:09.852Z,1.90
2022-09-30T12:12:40.917Z,4.60
2022-09-30T12:15:14.370Z,2.47
2022-09-30T12:17:44.345Z,3.03
2022-09-30T12:20:17.369Z,2.83
2022-09-30T12:22:47.773Z,3.00
2022-09-30T12:25:18.300Z,3.37
2022-09-30T12:28:25.858Z,3.40
2022-09-30T12:31:09.189Z,2.77
2022-09-30T12:33:53.694Z,3.80
2022-09-30T12:36:40.048Z,5.80
2022-09-30T12:39:31.086Z,3.80
2022-09-30T12:42:07.309Z,3.43
2022-09-30T12:48:35.236Z,3.47
2022-09-30T12:51:06.794Z,3.10
2022-09-30T12:53:36.463Z,7.63
2022-09-30T12:56:08.185Z,4.33
2022-09-30T12:58:47.926Z,2.70
2022-09-30T13:01:24.329Z,1.57
2022-09-30T13:04:20.073Z,4.47
2022-09-30T13:07:27.052Z,3.67
2022-09-30T13:10:30.909Z,2.80
2022-09-30T13:13:29.929Z,2.40
2022-09-30T13:16:13.694Z,2.53
2022-09-30T13:19:33.499Z,2.77
2022-09-30T13:22:39.891Z,1.60
2022-09-30T13:25:58.007Z,1.10
2022-09-30T13:28:35.140Z,1.90
2022-09-30T13:31:23.795Z,3.40
2022-09-30T13:34:24.012Z,1.77
2022-09-30T13:37:07.544Z,1.83
2022-09-30T13:39:45.775Z,3.00
2022-09-30T13:42:28.257Z,2.50
2022-09-30T13:45:13.679Z,2.97
2022-09-30T13:51:36.653Z,2.20
2022-09-30T13:54:14.467Z,3.03
2022-09-30T13:56:54.813Z,6.60
2022-09-30T13:59:47.399Z,2.83
2022-09-30T14:02:54.313Z,4.73
2022-09-30T14:05:59.739Z,3.97
2022-09-30T14:09:35.815Z,2.10
2022-09-30T14:12:59.735Z,2.20
2022-09-30T14:16:37.490Z,1.80
2022-09-30T14:23:07.336Z,2.33
2022-09-30T14:26:24.263Z,1.63
2022-09-30T14:32:16.987Z,2.93
2022-09-30T14:35:09.965Z,4.73
2022-09-30T14:38:06.669Z,2.93
2022-09-30T14:40:43.014Z,4.93
2022-09-30T14:50:49.127Z,1.47
2022-09-30T14:54:12.188Z,3.27
2022-09-30T15:23:57.017Z,7.23
2022-09-30T15:26:28.077Z,5.80
2022-09-30T15:29:10.283Z,4.17
2022-09-30T15:31:40.402Z,7.20
2022-09-30T15:34:30.115Z,6.43
2022-09-30T15:37:12.078Z,6.23
2022-09-30T15:39:59.484Z,5.23
2022-09-30T15:42:47.772Z,5.43
2022-09-30T15:45:41.815Z,6.27
2022-09-30T15:48:45.020Z,5.30
2022-09-30T15:51:35.138Z,4.93
2022-09-30T15:54:58.036Z,5.90
2022-09-30T15:57:47.219Z,6.20
2022-09-30T16:00:43.732Z,5.60
2022-09-30T16:03:43.763Z,7.33
2022-09-30T16:06:15.328Z,5.77
2022-09-30T16:08:52.018Z,5.80
2022-09-30T16:12:03.243Z,4.23
2022-09-30T16:14:49.854Z,4.20
2022-09-30T16:17:22.011Z,4.33
2022-09-30T16:19:59.719Z,7.67
2022-09-30T16:29:49.638Z,4.37
2022-09-30T16:32:35.099Z,4.87
2022-09-30T16:35:05.858Z,8.63
2022-09-30T16:37:37.135Z,4.30
2022-09-30T16:40:29.719Z,8.20
2022-09-30T16:43:11.632Z,6.07
2022-09-30T16:45:50.149Z,4.03
2022-09-30T16:48:30.655Z,5.97
2022-09-30T16:51:06.598Z,5.17
2022-09-30T16:53:41.809Z,5.47
2022-09-30T16:56:20.106Z,5.60
2022-09-30T16:58:54.569Z,7.13
2022-09-30T17:01:28.657Z,7.47
2022-09-30T17:03:59.449Z,5.60
2022-09-30T17:06:37.577Z,5.03
2022-09-30T17:09:06.595Z,5.53
2022-09-30T17:11:39.835Z,6.60
2022-09-30T17:14:21.900Z,4.43
2022-09-30T17:17:13.477Z,4.33
2022-09-30T17:19:44.347Z,4.77
2022-09-30T17:22:13.435Z,5.73
2022-09-30T17:24:45.941Z,7.60
2022-09-30T17:27:17.562Z,6.00
2022-09-30T17:29:51.049Z,6.27
2022-09-30T17:32:26.279Z,6.30
2022-09-30T17:34:55.857Z,5.80
2022-09-30T17:37:27.173Z,6.43
2022-09-30T17:39:55.492Z,4.67
2022-09-30T17:42:43.593Z,5.60
2022-09-30T17:45:14.987Z,4.40
2022-09-30T17:47:48.536Z,5.77
2022-09-30T17:50:20.817Z,6.30
2022-09-30T17:52:51.444Z,5.10
2022-09-30T17:55:24.658Z,5.67
2022-09-30T17:57:53.734Z,5.47
2022-09-30T18:00:27.348Z,4.97
2022-09-30T18:02:57.630Z,4.17
2022-09-30T18:05:35.538Z,8.50
2022-09-30T18:08:20.881Z,3.43
2022-09-30T18:10:53.154Z,4.43
2022-09-30T18:13:24.399Z,5.13
2022-09-30T18:15:52.801Z,5.60
2022-09-30T18:18:22.652Z,6.17
2022-09-30T18:20:55.128Z,4.73
2022-09-30T18:23:23.905Z,4.27
2022-09-30T18:25:58.049Z,8.33
2022-09-30T18:28:31.315Z,3.53
2022-09-30T18:31:06.601Z,3.60
2022-09-30T18:33:38.878Z,6.13
2022-09-30T18:36:08.944Z,5.60
2022-09-30T18:38:37.459Z,6.00
2022-09-30T18:41:18.971Z,4.20
2022-09-30T18:43:51.898Z,5.43
2022-09-30T18:46:27.596Z,4.60
2022-09-30T18:48:59.817Z,4.67
2022-09-30T18:51:36.447Z,4.73
2022-09-30T18:54:09.220Z,5.10
2022-09-30T18:56:41.457Z,8.50
2022-09-30T18:59:20.612Z,3.80
2022-09-30T19:01:57.437Z,7.33
2022-09-30T19:04:34.624Z,6.80
2022-09-30T19:07:09.129Z,3.30
2022-09-30T19:09:39.645Z,6.23
2022-09-30T19:12:07.860Z,3.43
2022-09-30T19:14:37.448Z,5.33
2022-09-30T19:17:05.982Z,7.77
2022-09-30T19:19:41.281Z,7.10
2022-09-30T19:22:10.670Z,5.83
2022-09-30T19:24:41.032Z,7.80
2022-09-30T19:27:13.474Z,4.50
2022-09-30T19:29:54.034Z,5.60
2022-09-30T19:32:33.382Z,6.73
2022-09-30T19:35:13.292Z,4.20
2022-09-30T19:38:00.953Z,3.70
2022-09-30T19:43:05.303Z,3.90
2022-09-30T19:45:34.385Z,4.63
2022-09-30T19:48:03.473Z,4.20
2022-09-30T19:50:34.257Z,3.93
2022-09-30T19:53:08.027Z,6.90
2022-09-30T19:55:48.615Z,3.90
2022-09-30T19:58:19.700Z,3.80
2022-09-30T20:00:57.649Z,3.07
2022-09-30T20:03:43.322Z,7.73
2022-09-30T20:06:16.374Z,5.10
2022-09-30T20:08:49.412Z,3.13
2022-09-30T20:11:20.067Z,3.57
2022-09-30T20:13:50.929Z,3.20
2022-09-30T20:16:21.209Z,3.07
2022-09-30T20:18:50.651Z,3.53
2022-09-30T20:21:24.563Z,3.23
2022-09-30T20:23:59.921Z,5.47
2022-09-30T20:26:28.546Z,2.93
2022-09-30T20:29:06.168Z,7.27
2022-09-30T20:31:38.858Z,6.20
2022-09-30T20:34:12.094Z,3.40
2022-09-30T20:36:42.140Z,4.23
2022-09-30T20:39:12.922Z,3.07
2022-09-30T20:41:44.059Z,4.30
2022-09-30T20:44:16.570Z,7.57
2022-09-30T20:46:44.946Z,4.53
2022-09-30T20:49:13.324Z,4.57
2022-09-30T20:51:46.289Z,8.53
2022-09-30T20:54:21.649Z,4.93
2022-09-30T20:57:06.905Z,8.37
2022-09-30T20:59:36.127Z,4.40
2022-09-30T21:02:05.034Z,3.90
2022-09-30T21:04:33.856Z,3.97
2022-09-30T21:07:06.894Z,11.47
2022-09-30T21:09:36.035Z,4.10
2022-09-30T21:12:14.732Z,6.17
2022-09-30T21:14:49.182Z,3.60
2022-09-30T21:17:18.024Z,4.83
2022-09-30T21:19:46.699Z,6.40
2022-09-30T21:22:20.697Z,6.20
2022-09-30T21:24:49.817Z,4.30
2022-09-30T21:27:19.321Z,7.10
2022-09-30T21:29:47.523Z,6.83
2022-09-30T21:32:16.579Z,4.50
2022-09-30T21:34:44.854Z,4.37
2022-09-30T21:37:13.189Z,6.97
2022-09-30T21:39:48.126Z,4.37
2022-09-30T21:42:16.786Z,4.50
2022-09-30T21:44:45.007Z,7.47
2022-09-30T21:47:13.215Z,5.90
2022-09-30T21:49:41.609Z,5.67
2022-09-30T21:52:10.696Z,3.50
2022-09-30T21:54:40.324Z,4.07
2022-09-30T21:57:10.238Z,5.10
2022-09-30T21:59:38.800Z,5.27
2022-09-30T22:02:07.137Z,6.20
2022-09-30T22:04:37.560Z,3.13
2022-09-30T22:07:06.500Z,4.33
2022-09-30T22:09:39.298Z,4.70
2022-09-30T22:12:11.930Z,6.27
2022-09-30T22:14:40.260Z,5.03
2022-09-30T22:17:09.946Z,4.37
2022-09-30T22:19:39.111Z,5.80
2022-09-30T22:22:08.133Z,3.90
2022-09-30T22:24:37.037Z,4.60
2022-09-30T22:27:07.601Z,8.07
2022-09-30T22:29:37.182Z,7.43
2022-09-30T22:32:05.629Z,4.43
2022-09-30T22:34:51.213Z,6.40
2022-09-30T22:37:36.843Z,6.27
2022-09-30T22:40:05.836Z,4.53
2022-09-30T22:42:37.420Z,5.10
2022-09-30T22:45:08.230Z,4.37
2022-09-30T22:47:36.891Z,4.60
2022-09-30T22:50:05.662Z,6.43
2022-09-30T22:52:42.586Z,4.10
2022-09-30T22:55:11.223Z,4.90
2022-09-30T22:57:39.353Z,3.83
2022-09-30T23:00:10.556Z,5.03
2022-09-30T23:02:40.219Z,4.23
2022-09-30T23:05:09.371Z,4.63
2022-09-30T23:07:37.565Z,3.43
2022-09-30T23:10:07.203Z,6.67
2022-09-30T23:12:36.142Z,4.70
2022-09-30T23:15:04.429Z,5.73
2022-09-30T23:17:35.770Z,3.60
2022-09-30T23:20:04.150Z,11.77
2022-09-30T23:22:32.295Z,5.03
2022-09-30T23:25:02.738Z,8.57
2022-09-30T23:27:30.988Z,6.03
2022-09-30T23:29:59.157Z,8.33
2022-09-30T23:32:28.127Z,5.87
2022-09-30T23:34:57.712Z,7.37
2022-09-30T23:37:25.788Z,5.90
2022-09-30T23:39:53.854Z,7.43
2022-09-30T23:42:22.157Z,8.33
2022-09-30T23:44:50.322Z,5.77
2022-09-30T23:47:21.550Z,8.87
2022-09-30T23:49:50.590Z,10.87
2022-09-30T23:52:23.056Z,7.60
2022-09-30T23:54:51.384Z,8.27
2022-09-30T23:57:22.211Z,7.87
2022-09-30T23:59:50.367Z,8.30
